Time;durP1;ratioP1;P1;durP2;ratioP2;P2;SDS_P1;SDS_P2;PMS_P1;PMS_P2;Temp;Humidity;BMP_temperature;BMP_pressure;BME280_temperature;BME280_humidity;BME280_pressure;Samples;Min_cycle;Max_cycle;Signal;HPM_P1;HPM_P2
2021/09/28 00:01:25;;;;;;;3.45;2.00;;;;;;;9.98;70.71;100743.53;5034429;28;20033;-55
2021/09/28 00:03:51;;;;;;;2.85;2.08;;;;;;;9.69;72.19;100762.25;5034405;28;20117;-54
2021/09/28 00:06:16;;;;;;;4.10;2.10;;;;;;;9.58;72.51;100761.09;5033991;28;20094;-58
2021/09/28 00:08:42;;;;;;;2.67;1.92;;;;;;;9.45;73.31;100750.28;5032290;28;20049;-55
2021/09/28 00:11:10;;;;;;;4.63;2.10;;;;;;;9.51;73.46;100757.09;5033906;28;20076;-55
2021/09/28 00:13:35;;;;;;;2.50;1.85;;;;;;;9.55;72.45;100763.97;5033315;28;20033;-54
2021/09/28 00:16:01;;;;;;;3.25;1.90;;;;;;;9.48;72.60;100767.97;5033854;28;20057;-55
2021/09/28 00:18:26;;;;;;;2.08;1.70;;;;;;;9.27;73.16;100736.25;5033204;28;20029;-53
2021/09/28 00:20:52;;;;;;;3.63;2.47;;;;;;;9.47;73.07;100772.44;5034007;28;20108;-53
2021/09/28 00:23:18;;;;;;;7.75;2.08;;;;;;;9.63;71.69;100769.69;5034293;28;20025;-59
2021/09/28 00:25:44;;;;;;;3.65;2.33;;;;;;;9.44;72.41;100759.28;5033815;28;20037;-53
2021/09/28 00:28:10;;;;;;;2.97;1.92;;;;;;;9.43;72.06;100757.56;5033563;28;20036;-56
2021/09/28 00:30:35;;;;;;;4.28;2.60;;;;;;;9.50;71.88;100763.38;5033299;28;20029;-54
2021/09/28 00:33:01;;;;;;;4.20;2.40;;;;;;;9.51;71.49;100786.50;5033991;28;20381;-57
2021/09/28 00:35:26;;;;;;;3.00;1.95;;;;;;;9.47;71.77;100767.09;5033879;28;20037;-56
2021/09/28 00:37:51;;;;;;;4.30;2.25;;;;;;;9.46;71.30;100777.91;5033477;28;20416;-57
2021/09/28 00:40:17;;;;;;;3.30;2.13;;;;;;;9.27;72.19;100776.34;5033149;28;20676;-54
2021/09/28 00:42:42;;;;;;;2.60;2.13;;;;;;;9.14;72.51;100768.19;5051553;28;20029;-54
2021/09/28 00:45:09;;;;;;;2.97;1.85;;;;;;;9.03;73.14;100775.97;5053429;28;20040;-56
2021/09/28 00:47:35;;;;;;;2.40;2.20;;;;;;;9.12;72.56;100790.59;5053258;28;20465;-56
2021/09/28 00:50:00;;;;;;;3.33;2.42;;;;;;;9.28;72.13;100788.75;5052643;28;20083;-55
2021/09/28 00:52:26;;;;;;;2.35;1.55;;;;;;;9.36;71.63;100796.31;5053379;28;20082;-57
2021/09/28 00:54:52;;;;;;;2.72;2.30;;;;;;;9.32;71.63;100797.44;5051666;28;20035;-57
2021/09/28 00:57:19;;;;;;;3.72;2.60;;;;;;;9.30;71.46;100794.00;5052667;28;20040;-55
2021/09/28 00:59:45;;;;;;;2.88;2.25;;;;;;;9.05;72.60;100790.13;5052648;28;20179;-55
2021/09/28 01:02:13;;;;;;;4.93;2.35;;;;;;;9.22;71.71;100807.81;5052424;28;20404;-56
2021/09/28 01:04:39;;;;;;;4.75;2.30;;;;;;;9.14;72.13;100805.59;5052595;28;20091;-54
2021/09/28 01:07:06;;;;;;;3.33;2.20;;;;;;;9.05;72.37;100816.84;5052432;28;20037;-55
2021/09/28 01:09:33;;;;;;;2.72;2.10;;;;;;;9.16;71.79;100810.84;5052198;28;20139;-54
2021/09/28 01:11:59;;;;;;;2.83;1.90;;;;;;;9.12;71.44;100822.66;5052596;28;20035;-57
2021/09/28 01:14:25;;;;;;;5.63;2.20;;;;;;;9.04;72.04;100810.63;5052180;28;20489;-57
2021/09/28 01:16:50;;;;;;;3.85;2.60;;;;;;;9.16;71.64;100818.84;5052435;28;20037;-59
2021/09/28 01:19:16;;;;;;;5.07;2.30;;;;;;;9.24;70.96;100831.75;5052683;28;20062;-51
2021/09/28 01:21:42;;;;;;;1.88;1.45;;;;;;;9.48;68.77;100826.78;5052194;28;20091;-53
2021/09/28 01:24:08;;;;;;;3.58;2.08;;;;;;;9.17;69.94;100836.63;5052622;28;20025;-55
2021/09/28 01:26:35;;;;;;;4.38;1.77;;;;;;;9.10;70.59;100838.78;5052362;28;20403;-53
2021/09/28 01:29:03;;;;;;;4.60;2.40;;;;;;;8.93;71.64;100839.78;5052038;28;20075;-51
2021/09/28 01:31:29;;;;;;;3.40;2.78;;;;;;;8.88;71.70;100836.47;5052051;28;20059;-51
2021/09/28 01:33:55;;;;;;;4.70;2.10;;;;;;;8.90;71.53;100834.59;5052163;28;20033;-49
2021/09/28 01:36:21;;;;;;;4.45;2.15;;;;;;;8.89;71.81;100844.41;5052336;28;20369;-54
2021/09/28 01:38:47;;;;;;;2.95;1.90;;;;;;;8.93;71.83;100844.25;5052159;28;20036;-57
2021/09/28 01:41:14;;;;;;;4.20;2.38;;;;;;;8.88;72.34;100847.16;5051321;28;21428;-58
2021/09/28 01:43:40;;;;;;;2.55;1.98;;;;;;;8.92;72.24;100848.72;5052124;28;20362;-54
2021/09/28 01:46:05;;;;;;;5.70;2.35;;;;;;;8.92;72.33;100847.84;5050967;28;20044;-62
2021/09/28 01:48:46;;;;;;;4.55;2.30;;;;;;;9.09;71.91;100852.22;5052697;28;20037;-57
2021/09/28 01:51:11;;;;;;;2.55;1.92;;;;;;;9.18;71.00;100863.25;5052611;28;20203;-58
2021/09/28 01:53:37;;;;;;;3.70;2.10;;;;;;;9.06;71.61;100866.63;5050561;28;20056;-53
2021/09/28 01:56:03;;;;;;;2.17;1.98;;;;;;;9.05;71.81;100857.75;5051736;28;20111;-54
2021/09/28 01:58:29;;;;;;;3.28;2.10;;;;;;;9.01;72.52;100858.88;5052136;28;20049;-55
2021/09/28 02:00:54;;;;;;;3.28;2.10;;;;;;;9.05;72.42;100860.41;5052200;28;20033;-56
2021/09/28 02:03:20;;;;;;;4.22;2.67;;;;;;;9.05;72.08;100852.41;5051713;28;20033;-56
2021/09/28 02:05:45;;;;;;;3.00;2.00;;;;;;;9.32;70.28;100853.56;5051740;28;20025;-55
2021/09/28 02:08:11;;;;;;;3.80;2.45;;;;;;;9.27;70.45;100859.16;5051649;28;20373;-55
2021/09/28 02:10:37;;;;;;;5.55;2.17;;;;;;;9.18;70.63;100868.59;5052049;28;20037;-54
2021/09/28 02:13:03;;;;;;;2.63;1.85;;;;;;;9.04;70.98;100868.50;5051401;28;20128;-53
2021/09/28 02:15:28;;;;;;;3.75;2.25;;;;;;;9.00;71.34;100867.84;5051191;28;20101;-57
2021/09/28 02:17:54;;;;;;;4.57;1.98;;;;;;;9.11;70.63;100871.69;5051970;28;20532;-59
2021/09/28 02:20:19;;;;;;;3.35;1.85;;;;;;;9.25;69.57;100873.56;5052153;28;20029;-57
2021/09/28 02:22:45;;;;;;;2.15;1.80;;;;;;;8.88;71.05;100868.53;5051229;28;20362;-55
2021/09/28 02:25:13;;;;;;;3.83;1.83;;;;;;;9.04;69.82;100880.06;5051353;28;20037;-57
2021/09/28 02:27:39;;;;;;;2.58;1.95;;;;;;;8.93;70.35;100866.47;5050491;28;20487;-56
2021/09/28 02:30:06;;;;;;;2.55;2.00;;;;;;;8.87;70.97;100882.84;5051812;28;20033;-55
2021/09/28 02:32:31;;;;;;;4.15;1.88;;;;;;;8.93;70.50;100887.84;5049357;28;20057;-55
2021/09/28 02:34:57;;;;;;;3.17;1.88;;;;;;;9.16;68.77;100881.16;5049730;28;20064;-56
2021/09/28 02:37:22;;;;;;;3.50;1.80;;;;;;;8.86;69.61;100889.13;5051809;28;20087;-57
2021/09/28 02:39:47;;;;;;;2.95;2.10;;;;;;;8.87;70.02;100893.50;5051527;28;20102;-55
2021/09/28 02:42:13;;;;;;;3.08;2.00;;;;;;;8.89;69.64;100892.50;5050857;28;20037;-58
2021/09/28 02:44:39;;;;;;;3.88;1.90;;;;;;;8.74;70.28;100885.34;5050896;28;20025;-55
2021/09/28 02:47:05;;;;;;;3.15;1.92;;;;;;;8.70;70.54;100903.34;5051454;28;20111;-57
2021/09/28 02:49:31;;;;;;;2.67;2.00;;;;;;;8.72;69.64;100901.47;5051030;28;20489;-55
2021/09/28 02:51:56;;;;;;;3.63;2.15;;;;;;;8.67;69.49;100892.81;5050470;28;20021;-57
2021/09/28 02:54:22;;;;;;;3.55;2.20;;;;;;;8.72;69.45;100906.78;5050674;28;20381;-55
2021/09/28 02:56:47;;;;;;;4.95;2.40;;;;;;;8.80;68.59;100906.38;5050583;28;20025;-54
2021/09/28 02:59:13;;;;;;;4.00;2.40;;;;;;;8.63;69.42;100907.28;5050240;28;20112;-54
2021/09/28 03:01:38;;;;;;;4.60;2.35;;;;;;;8.26;69.98;100866.59;5050231;28;20415;-57
2021/09/28 03:04:05;;;;;;;4.05;2.10;;;;;;;8.53;69.70;100903.41;5048927;28;20025;-55
2021/09/28 03:06:31;;;;;;;3.13;2.55;;;;;;;8.64;68.98;100909.00;5050790;28;20040;-56
2021/09/28 03:08:57;;;;;;;3.45;2.05;;;;;;;8.57;69.81;100918.31;5050433;28;20076;-60
2021/09/28 03:11:26;;;;;;;2.60;2.13;;;;;;;8.74;68.69;100920.91;5049061;28;20052;-57
2021/09/28 03:13:52;;;;;;;5.65;2.13;;;;;;;8.63;69.04;100927.78;5051100;28;20037;-58
2021/09/28 03:16:17;;;;;;;2.85;2.13;;;;;;;8.64;68.90;100930.38;5050666;28;20029;-56
2021/09/28 03:18:43;;;;;;;3.05;1.88;;;;;;;8.68;68.94;100937.28;5050470;28;20040;-57
2021/09/28 03:21:08;;;;;;;4.35;2.08;;;;;;;8.58;69.32;100930.72;5050780;28;20039;-54
2021/09/28 03:23:34;;;;;;;3.95;2.20;;;;;;;8.48;68.31;100901.84;5050682;28;20025;-55
2021/09/28 03:25:59;;;;;;;3.53;2.00;;;;;;;8.56;69.08;100936.16;5050573;28;20468;-53
2021/09/28 03:28:25;;;;;;;3.40;2.08;;;;;;;8.61;68.54;100946.56;5051350;28;20107;-53
2021/09/28 03:30:50;;;;;;;6.00;2.45;;;;;;;8.39;68.91;100917.47;5050179;28;20163;-54
2021/09/28 03:33:15;;;;;;;5.47;2.40;;;;;;;8.48;69.06;100954.34;5050362;28;20044;-58
2021/09/28 03:35:41;;;;;;;3.55;2.00;;;;;;;8.54;68.79;100945.16;5050587;28;20036;-57
2021/09/28 03:38:06;;;;;;;2.72;2.03;;;;;;;8.76;67.74;100955.53;5048847;28;20127;-57
2021/09/28 03:40:32;;;;;;;3.92;2.65;;;;;;;8.53;68.72;100954.13;5049270;28;20033;-55
2021/09/28 03:42:57;;;;;;;2.38;2.17;;;;;;;8.51;69.08;100959.53;5049393;28;20457;-56
2021/09/28 03:45:23;;;;;;;6.40;2.60;;;;;;;8.61;68.35;100968.78;5050861;28;20029;-56
2021/09/28 03:47:49;;;;;;;4.70;2.83;;;;;;;8.37;69.55;100962.06;5050036;28;20040;-54
2021/09/28 03:50:14;;;;;;;3.72;2.92;;;;;;;8.38;69.57;100969.97;5050177;28;20025;-56
2021/09/28 03:52:40;;;;;;;6.50;2.60;;;;;;;8.38;69.08;100967.31;5049054;28;20087;-55
2021/09/28 03:55:06;;;;;;;2.95;2.65;;;;;;;8.40;69.45;100970.75;5050920;28;20108;-52
2021/09/28 03:57:34;;;;;;;5.43;2.72;;;;;;;8.58;68.36;100978.75;5049989;28;20108;-53
2021/09/28 04:00:01;;;;;;;4.25;2.33;;;;;;;8.45;68.68;100981.19;5050361;28;20111;-56
2021/09/28 04:02:27;;;;;;;3.97;2.80;;;;;;;8.41;69.00;100976.97;5050565;28;20043;-54
2021/09/28 04:04:52;;;;;;;5.28;2.67;;;;;;;8.43;69.19;100981.25;5050701;28;20028;-55
2021/09/28 04:07:18;;;;;;;4.47;2.42;;;;;;;8.21;69.23;100948.69;5049987;28;20045;-53
2021/09/28 04:09:43;;;;;;;4.50;2.28;;;;;;;8.36;69.36;100971.88;5052974;28;20503;-55
2021/09/28 04:12:09;;;;;;;3.45;2.95;;;;;;;8.35;69.46;100982.63;5054175;28;20025;-59
2021/09/28 04:14:35;;;;;;;4.10;2.35;;;;;;;8.48;68.26;100997.03;5053202;28;20041;-55
2021/09/28 04:17:00;;;;;;;4.05;2.78;;;;;;;8.54;67.53;100991.41;5053928;28;20059;-59
2021/09/28 04:19:26;;;;;;;4.50;2.83;;;;;;;8.24;68.66;100981.38;5052337;28;20052;-54
2021/09/28 04:21:52;;;;;;;4.80;3.50;;;;;;;8.24;68.16;101007.22;5054054;28;20061;-57
2021/09/28 04:24:17;;;;;;;4.72;3.22;;;;;;;8.10;68.74;100999.91;5054308;28;20029;-56
2021/09/28 04:26:43;;;;;;;4.88;3.00;;;;;;;8.08;68.45;101008.00;5053479;28;20037;-54
2021/09/28 04:29:08;;;;;;;4.07;3.30;;;;;;;8.02;68.54;100997.66;5053124;28;20488;-56
2021/09/28 04:31:34;;;;;;;3.60;2.88;;;;;;;8.23;67.38;101005.47;5053474;28;20029;-56
2021/09/28 04:33:59;;;;;;;5.00;3.13;;;;;;;8.23;67.58;101006.34;5054095;28;20087;-55
2021/09/28 04:36:25;;;;;;;4.22;3.38;;;;;;;8.02;68.09;101000.31;5053542;28;20029;-55
2021/09/28 04:38:51;;;;;;;5.03;3.60;;;;;;;8.00;68.25;101004.88;5052984;28;20037;-55
2021/09/28 04:41:16;;;;;;;4.15;3.35;;;;;;;8.11;67.83;101018.50;5053280;28;20079;-56
2021/09/28 04:43:42;;;;;;;5.35;3.63;;;;;;;7.98;68.02;100996.94;5053656;28;20028;-56
2021/09/28 04:46:08;;;;;;;5.20;3.83;;;;;;;8.13;67.96;101029.09;5052676;28;20458;-53
2021/09/28 04:48:33;;;;;;;4.95;3.75;;;;;;;8.13;67.61;101029.09;5053129;28;20462;-62
2021/09/28 04:50:59;;;;;;;9.60;4.00;;;;;;;8.18;67.64;101032.38;5053129;28;20133;-55
2021/09/28 04:53:24;;;;;;;6.85;3.90;;;;;;;8.38;66.22;101034.03;5052852;28;20068;-55
2021/09/28 04:55:57;;;;;;;6.63;4.00;;;;;;;7.96;67.39;101011.28;5052829;28;20446;-55
2021/09/28 04:58:23;;;;;;;5.75;4.35;;;;;;;7.94;68.21;101042.47;5051429;28;20032;-55
2021/09/28 05:00:49;;;;;;;7.50;4.75;;;;;;;8.13;66.56;101053.97;5052253;28;20033;-55
2021/09/28 05:03:15;;;;;;;5.82;4.88;;;;;;;8.04;66.74;101046.44;5052947;28;20055;-57
2021/09/28 05:05:40;;;;;;;3.65;2.80;;;;;;;8.28;65.71;101041.63;5051196;28;20040;-55
2021/09/28 05:08:06;;;;;;;7.63;4.95;;;;;;;8.27;64.66;101057.75;5052481;28;20053;-57
2021/09/28 05:10:31;;;;;;;6.05;4.72;;;;;;;8.19;65.02;101053.63;5052716;28;20072;-56
2021/09/28 05:12:57;;;;;;;6.65;4.43;;;;;;;8.41;63.55;101046.34;5052616;28;20029;-57
2021/09/28 05:15:23;;;;;;;8.57;5.10;;;;;;;8.06;63.55;101015.22;5050962;28;20029;-55
2021/09/28 05:17:48;;;;;;;5.78;4.80;;;;;;;8.32;63.40;101053.03;5052301;28;20032;-56
2021/09/28 05:20:13;;;;;;;8.48;4.47;;;;;;;8.33;64.49;101071.63;5051619;28;20535;-54
2021/09/28 05:22:39;;;;;;;7.78;5.40;;;;;;;8.32;64.50;101074.38;5052638;28;20029;-58
2021/09/28 05:25:05;;;;;;;7.35;4.13;;;;;;;8.47;64.08;101070.94;5052431;28;20583;-57
2021/09/28 05:27:30;;;;;;;11.98;6.30;;;;;;;8.35;64.04;101074.22;5052289;28;20125;-55
2021/09/28 05:29:56;;;;;;;8.43;5.25;;;;;;;8.08;66.14;101066.66;5052143;28;20025;-58
2021/09/28 05:32:21;;;;;;;7.82;5.65;;;;;;;8.31;64.52;101084.16;5052769;28;20032;-56
2021/09/28 05:34:47;;;;;;;8.60;5.78;;;;;;;8.36;63.89;101081.28;5051698;28;20029;-54
2021/09/28 05:37:12;;;;;;;9.82;6.10;;;;;;;8.22;65.13;101089.13;5052207;28;20037;-54
2021/09/28 05:39:37;;;;;;;8.32;5.75;;;;;;;8.19;65.06;101085.66;5052456;28;20111;-56
2021/09/28 05:42:03;;;;;;;7.90;6.00;;;;;;;8.26;65.07;101088.03;5051476;28;20021;-57
2021/09/28 05:44:29;;;;;;;7.18;4.78;;;;;;;8.22;65.20;101094.47;5050481;28;20033;-58
2021/09/28 05:46:54;;;;;;;7.75;5.32;;;;;;;8.41;64.38;101094.38;5050911;28;20029;-56
2021/09/28 05:49:20;;;;;;;11.80;6.25;;;;;;;8.35;64.25;101106.22;5051785;28;20385;-58
2021/09/28 05:51:54;;;;;;;7.07;5.57;;;;;;;8.29;65.72;101106.56;5051936;28;20480;-54
2021/09/28 05:54:20;;;;;;;7.97;5.60;;;;;;;8.30;65.87;101109.13;5049980;28;20039;-54
2021/09/28 05:56:47;;;;;;;7.28;6.07;;;;;;;8.53;64.72;101103.59;5051882;28;20100;-58
2021/09/28 05:59:13;;;;;;;7.60;5.45;;;;;;;8.59;63.69;101103.28;5052071;28;20384;-55
2021/09/28 06:01:38;;;;;;;9.30;6.22;;;;;;;8.66;64.09;101102.00;5052060;28;20029;-57
2021/09/28 06:04:04;;;;;;;8.68;6.82;;;;;;;8.57;64.81;101113.19;5051643;28;20473;-56
2021/09/28 06:06:30;;;;;;;9.07;6.25;;;;;;;8.57;64.52;101118.50;5050037;28;20025;-58
2021/09/28 06:08:57;;;;;;;14.68;7.03;;;;;;;8.62;65.01;101111.13;5051850;28;20049;-55
2021/09/28 06:11:22;;;;;;;12.85;7.32;;;;;;;8.69;65.00;101119.69;5051631;28;20041;-57
2021/09/28 06:13:49;;;;;;;10.40;6.70;;;;;;;8.47;64.62;101083.38;5051363;28;20469;-58
2021/09/28 06:16:14;;;;;;;10.00;6.50;;;;;;;8.67;65.29;101111.75;5050127;28;20041;-61
2021/09/28 06:18:40;;;;;;;7.88;5.88;;;;;;;8.94;63.71;101127.28;5050965;28;20029;-61
2021/09/28 06:21:05;;;;;;;8.68;5.75;;;;;;;8.96;63.14;101130.75;5052016;28;20032;-61
2021/09/28 06:23:31;;;;;;;9.15;7.25;;;;;;;8.87;63.59;101128.53;5050839;28;20473;-62
2021/09/28 06:25:56;;;;;;;12.80;7.13;;;;;;;8.55;64.37;101133.75;5049649;28;20052;-62
2021/09/28 06:28:22;;;;;;;9.10;7.10;;;;;;;8.44;64.88;101132.47;5051672;28;20059;-61
2021/09/28 06:30:48;;;;;;;9.75;6.93;;;;;;;8.42;65.03;101131.66;5051333;28;20021;-63
2021/09/28 06:33:13;;;;;;;8.25;6.28;;;;;;;8.60;64.28;101131.69;5049226;28;20388;-63
2021/09/28 06:35:39;;;;;;;9.02;6.53;;;;;;;8.10;65.08;101077.28;5051183;28;20025;-61
2021/09/28 06:38:06;;;;;;;10.40;7.40;;;;;;;8.59;65.30;101146.00;5050612;28;20488;-61
2021/09/28 06:40:33;;;;;;;9.90;6.78;;;;;;;8.64;65.35;101148.44;5051091;28;20033;-62
2021/09/28 06:42:59;;;;;;;13.63;6.75;;;;;;;8.67;64.65;101138.44;5032753;28;20465;-62
2021/09/28 06:45:24;;;;;;;10.30;6.57;;;;;;;8.67;63.71;101117.09;5032687;28;20037;-63
2021/09/28 06:47:50;;;;;;;11.55;6.95;;;;;;;8.63;64.25;101144.03;5050793;28;20033;-62
2021/09/28 06:50:15;;;;;;;10.68;7.05;;;;;;;8.62;64.48;101151.16;5049571;28;20028;-62
2021/09/28 06:52:43;;;;;;;8.73;6.82;;;;;;;8.54;65.51;101140.03;5050642;28;20037;-62
2021/09/28 06:55:09;;;;;;;13.18;6.75;;;;;;;8.64;65.24;101143.09;5049568;28;20078;-63
2021/09/28 06:57:35;;;;;;;9.15;6.82;;;;;;;8.85;64.59;101147.31;5051149;28;20172;-63
2021/09/28 07:00:00;;;;;;;12.25;7.25;;;;;;;9.12;62.87;101162.84;5049357;28;20133;-63
2021/09/28 07:02:27;;;;;;;10.80;7.45;;;;;;;9.10;62.28;101158.50;5050431;28;20468;-63
2021/09/28 07:04:53;;;;;;;10.95;6.13;;;;;;;9.03;62.51;101160.63;5047657;28;20037;-63
2021/09/28 07:07:19;;;;;;;10.05;7.05;;;;;;;8.87;63.05;101168.59;5048747;28;20063;-61
2021/09/28 07:09:45;;;;;;;8.85;6.25;;;;;;;8.66;63.60;101158.06;5032455;28;20051;-62
2021/09/28 07:12:11;;;;;;;9.73;5.80;;;;;;;8.85;63.37;101160.69;5050704;28;20029;-63
2021/09/28 07:14:36;;;;;;;7.63;6.63;;;;;;;9.01;62.91;101168.75;5050496;28;20357;-59
2021/09/28 07:17:02;;;;;;;8.32;4.78;;;;;;;9.22;61.10;101160.56;5049201;28;20037;-61
2021/09/28 07:19:28;;;;;;;11.43;7.10;;;;;;;9.21;60.87;101165.97;5050905;28;20067;-62
2021/09/28 07:21:53;;;;;;;10.40;6.32;;;;;;;9.23;60.71;101164.94;5047314;28;20041;-62
2021/09/28 07:24:19;;;;;;;8.63;5.30;;;;;;;9.60;58.87;101170.94;5050294;28;20044;-62
2021/09/28 07:26:44;;;;;;;7.75;5.88;;;;;;;9.26;57.66;101177.25;5049512;28;20039;-61
2021/09/28 07:29:10;;;;;;;10.77;5.97;;;;;;;9.31;57.96;101176.06;5050765;28;20087;-61
2021/09/28 07:31:35;;;;;;;7.38;5.82;;;;;;;9.29;56.83;101183.31;5050114;28;20040;-62
2021/09/28 07:34:01;;;;;;;9.18;5.35;;;;;;;9.07;57.89;101169.38;5049282;28;20374;-59
2021/09/28 07:36:26;;;;;;;10.63;5.38;;;;;;;9.13;58.20;101182.41;5049578;28;20040;-61
2021/09/28 07:38:52;;;;;;;9.98;5.88;;;;;;;9.30;59.21;101181.53;5032452;28;20064;-62
2021/09/28 07:41:17;;;;;;;8.38;5.45;;;;;;;9.33;59.52;101186.69;5049002;28;20025;-62
2021/09/28 07:43:45;;;;;;;12.13;6.10;;;;;;;9.01;61.08;101190.13;5051930;28;20025;-63
2021/09/28 07:46:10;;;;;;;10.63;6.63;;;;;;;8.98;61.60;101187.63;5055287;28;20037;-61
2021/09/28 07:48:36;;;;;;;8.85;6.70;;;;;;;8.97;61.56;101193.03;5052913;28;20534;-62
2021/09/28 07:51:02;;;;;;;11.63;6.13;;;;;;;8.93;61.22;101165.63;5053983;28;20029;-60
2021/09/28 07:53:27;;;;;;;10.70;6.60;;;;;;;9.11;61.50;101211.00;5036533;28;20082;-60
2021/09/28 07:55:54;;;;;;;8.35;5.97;;;;;;;9.24;60.95;101198.75;5054590;28;20100;-62
2021/09/28 07:58:20;;;;;;;10.13;6.25;;;;;;;9.38;60.68;101191.78;5053851;28;20037;-60
2021/09/28 08:00:45;;;;;;;10.20;5.72;;;;;;;9.65;60.49;101215.31;5053648;28;20035;-60
2021/09/28 08:03:11;;;;;;;7.45;5.97;;;;;;;9.89;59.73;101213.97;5053010;28;20033;-58
2021/09/28 08:05:37;;;;;;;13.27;6.15;;;;;;;10.04;58.95;101214.03;5054040;28;20086;-62
2021/09/28 08:08:02;;;;;;;9.10;6.30;;;;;;;10.16;57.99;101209.81;5053811;28;20049;-61
2021/09/28 08:10:28;;;;;;;8.95;7.05;;;;;;;10.07;57.67;101211.19;5052385;28;20392;-63
2021/09/28 08:12:54;;;;;;;8.90;6.32;;;;;;;9.84;58.74;101207.97;5049201;28;20033;-63
2021/09/28 08:15:19;;;;;;;9.40;6.45;;;;;;;9.80;58.82;101214.47;5034992;28;20030;-61
2021/09/28 08:17:45;;;;;;;8.10;5.93;;;;;;;10.11;57.20;101225.28;5039249;28;20044;-64
2021/09/28 08:20:11;;;;;;;6.57;5.63;;;;;;;10.01;57.24;101224.91;5052927;28;20040;-63
2021/09/28 08:22:39;;;;;;;9.23;6.18;;;;;;;9.83;57.78;101218.78;5047103;28;20075;-63
2021/09/28 08:25:10;;;;;;;8.20;6.22;;;;;;;9.74;58.52;101218.31;5033306;28;20037;-63
2021/09/28 08:30:20;;;;;;;12.40;6.25;;;;;;;10.19;57.08;101213.19;5033793;28;20115;-63
2021/09/28 08:32:46;;;;;;;13.73;5.85;;;;;;;10.38;56.22;101216.63;5053376;28;20501;-63
2021/09/28 08:35:11;;;;;;;12.63;6.15;;;;;;;10.44;54.44;101214.50;5052009;28;20040;-62
2021/09/28 08:37:37;;;;;;;7.28;5.95;;;;;;;10.34;54.54;101205.22;5053054;28;20053;-63
2021/09/28 08:40:03;;;;;;;11.27;5.18;;;;;;;10.28;53.47;101185.03;5052529;28;20123;-63
2021/09/28 08:42:29;;;;;;;8.13;5.00;;;;;;;10.23;54.47;101178.22;5052760;28;20033;-64
2021/09/28 08:44:55;;;;;;;8.93;5.50;;;;;;;10.22;55.22;101222.84;5052933;28;20041;-63
2021/09/28 08:47:40;;;;;;;9.98;5.82;;;;;;;10.26;56.57;101223.53;5053420;28;20037;-64
2021/09/28 08:50:10;;;;;;;10.80;5.82;;;;;;;10.04;56.97;101227.41;5052750;28;20039;-62
2021/09/28 08:52:41;;;;;;;8.93;5.82;;;;;;;10.28;55.85;101237.69;5052967;28;20048;-63
2021/09/28 08:55:07;;;;;;;9.48;6.15;;;;;;;9.99;56.63;101242.88;5052618;28;20098;-66
2021/09/28 08:57:33;;;;;;;12.85;6.63;;;;;;;9.73;57.63;101229.13;5051306;28;20412;-63
2021/09/28 08:59:59;;;;;;;9.40;5.95;;;;;;;9.87;57.09;101233.72;5051671;28;20032;-63
2021/09/28 09:02:54;;;;;;;9.00;6.20;;;;;;;10.22;56.88;101248.75;5052696;28;20032;-63
2021/09/28 09:05:20;;;;;;;8.07;6.38;;;;;;;10.03;55.95;101239.06;5051661;28;20077;-61
2021/09/28 09:08:04;;;;;;;9.60;5.32;;;;;;;10.15;56.46;101257.13;5051988;28;20539;-64
2021/09/28 09:10:37;;;;;;;11.05;5.88;;;;;;;9.97;56.32;101240.28;5052368;28;20068;-63
2021/09/28 09:13:03;;;;;;;7.70;5.22;;;;;;;9.98;56.28;101259.88;5043861;28;20520;-62
2021/09/28 09:15:31;;;;;;;6.57;4.93;;;;;;;10.10;55.20;101252.97;5049699;28;20061;-62
2021/09/28 09:18:04;;;;;;;9.88;5.93;;;;;;;10.27;55.00;101260.06;5051790;28;20036;-63
2021/09/28 09:20:47;;;;;;;7.05;4.57;;;;;;;10.28;55.39;101245.72;5049145;28;20401;-62
2021/09/28 09:23:18;;;;;;;6.63;4.93;;;;;;;10.38;54.11;101259.44;5053012;28;20452;-62
2021/09/28 09:25:45;;;;;;;10.35;4.68;;;;;;;10.44;53.04;101272.50;5051391;28;20037;-62
2021/09/28 09:28:28;;;;;;;5.45;4.10;;;;;;;10.54;52.63;101264.81;5051224;28;20461;-60
2021/09/28 09:31:06;;;;;;;10.00;5.25;;;;;;;10.55;52.57;101275.47;5051822;28;20469;-62
2021/09/28 09:33:31;;;;;;;9.38;4.60;;;;;;;10.46;51.39;101276.84;5051837;28;20112;-61
2021/09/28 09:35:58;;;;;;;7.70;4.50;;;;;;;10.55;51.16;101266.53;5052386;28;20033;-62
2021/09/28 09:38:24;;;;;;;5.53;4.50;;;;;;;10.54;51.14;101272.84;5052342;28;20384;-60
2021/09/28 09:40:51;;;;;;;8.65;4.13;;;;;;;10.69;51.29;101269.31;5052201;28;20037;-62
2021/09/28 09:43:31;;;;;;;5.30;3.80;;;;;;;10.96;50.64;101290.06;5052030;28;20113;-62
2021/09/28 09:46:07;;;;;;;6.18;4.28;;;;;;;11.31;50.39;101284.41;5051321;28;20086;-62
2021/09/28 09:48:34;;;;;;;5.25;4.10;;;;;;;11.36;48.44;101277.94;5052019;28;20025;-61
2021/09/28 09:51:06;;;;;;;7.43;4.38;;;;;;;11.29;48.89;101282.78;5051812;28;20035;-62
2021/09/28 09:53:44;;;;;;;6.07;3.80;;;;;;;11.34;48.41;101283.38;5051299;28;20043;-61
2021/09/28 09:56:10;;;;;;;8.52;4.03;;;;;;;11.23;48.50;101275.13;5051094;28;20071;-61
2021/09/28 09:58:35;;;;;;;5.68;3.67;;;;;;;11.22;48.22;101279.63;5051964;28;20115;-60
2021/09/28 10:01:01;;;;;;;6.20;3.83;;;;;;;11.33;47.51;101290.56;5050530;28;20056;-60
2021/09/28 10:03:27;;;;;;;4.63;3.20;;;;;;;11.40;46.96;101287.50;5051551;28;20468;-61
2021/09/28 10:05:52;;;;;;;6.82;3.65;;;;;;;11.20;48.13;101273.50;5049678;28;20427;-62
2021/09/28 10:08:19;;;;;;;4.53;3.95;;;;;;;11.16;48.56;101285.34;5051661;28;20037;-64
2021/09/28 10:10:53;;;;;;;12.75;3.95;;;;;;;11.30;47.44;101288.06;5051996;28;20067;-63
2021/09/28 10:13:45;;;;;;;5.17;3.53;;;;;;;11.47;48.06;101302.25;5051695;28;20029;-62
2021/09/28 10:16:33;;;;;;;7.50;3.63;;;;;;;11.57;47.70;101289.16;5049963;28;20025;-62
2021/09/28 10:19:00;;;;;;;4.97;3.45;;;;;;;11.43;47.00;101260.50;5051524;28;20025;-62
2021/09/28 10:21:36;;;;;;;5.93;3.63;;;;;;;11.96;46.23;101284.09;5051840;28;20029;-62
2021/09/28 10:24:25;;;;;;;3.65;3.00;;;;;;;12.30;46.29;101288.19;5051076;28;20036;-62
2021/09/28 10:26:59;;;;;;;5.55;3.50;;;;;;;12.40;45.41;101284.91;5032983;28;20457;-62
2021/09/28 10:29:38;;;;;;;4.07;3.33;;;;;;;12.39;45.11;101285.84;5051154;28;20389;-61
2021/09/28 10:32:22;;;;;;;4.80;3.47;;;;;;;12.66;45.03;101288.56;5050154;28;20486;-61
2021/09/28 10:35:09;;;;;;;4.15;3.30;;;;;;;12.59;44.39;101284.56;5049732;28;20040;-64
2021/09/28 10:38:02;;;;;;;4.28;3.13;;;;;;;12.78;45.14;101287.78;5050917;28;20098;-62
2021/09/28 10:40:31;;;;;;;6.72;3.58;;;;;;;12.42;43.99;101280.28;5050646;28;20060;-61
2021/09/28 10:43:08;;;;;;;4.00;2.92;;;;;;;12.41;45.35;101278.56;5050756;28;20037;-61
2021/09/28 10:45:33;;;;;;;5.05;3.85;;;;;;;12.32;44.73;101288.09;5050750;28;20097;-62
2021/09/28 10:48:18;;;;;;;4.55;3.80;;;;;;;12.29;45.73;101285.59;5051007;28;20448;-61
2021/09/28 10:50:45;;;;;;;5.65;3.53;;;;;;;12.27;44.30;101268.72;5050427;28;20070;-62
2021/09/28 10:53:20;;;;;;;7.53;4.03;;;;;;;12.16;45.50;101290.88;5050832;28;20032;-62
2021/09/28 10:56:01;;;;;;;5.57;4.10;;;;;;;12.00;46.29;101286.47;5051259;28;20033;-61
2021/09/28 10:58:28;;;;;;;7.80;4.72;;;;;;;11.94;47.12;101288.69;5050646;28;20111;-62
2021/09/28 11:00:56;;;;;;;6.68;4.53;;;;;;;11.97;48.02;101288.50;5050832;28;20025;-64
2021/09/28 11:03:45;;;;;;;7.25;4.70;;;;;;;12.22;47.83;101289.63;5049828;28;20096;-61
2021/09/28 11:06:12;;;;;;;6.38;4.38;;;;;;;11.96;47.43;101251.88;5048625;28;20469;-62
2021/09/28 11:08:38;;;;;;;10.43;5.30;;;;;;;12.16;47.87;101294.44;5050644;28;20080;-62
2021/09/28 11:11:07;;;;;;;7.38;5.07;;;;;;;11.84;48.51;101249.03;5050512;28;20098;-62
2021/09/28 11:13:38;;;;;;;7.45;4.63;;;;;;;12.11;48.42;101288.53;5048778;28;20025;-62
2021/09/28 11:16:07;;;;;;;7.40;5.25;;;;;;;12.01;48.57;101287.34;5049005;28;20388;-62
2021/09/28 11:18:33;;;;;;;7.25;5.13;;;;;;;11.78;49.12;101286.94;5050228;28;20113;-61
2021/09/28 11:21:10;;;;;;;9.38;5.53;;;;;;;11.62;50.13;101274.50;5054118;28;20041;-61
2021/09/28 11:23:36;;;;;;;10.15;5.22;;;;;;;11.28;51.01;101281.91;5054046;28;20090;-61
2021/09/28 11:26:02;;;;;;;12.40;5.38;;;;;;;11.10;51.37;101275.84;5054889;28;20078;-61
2021/09/28 11:28:27;;;;;;;15.55;5.40;;;;;;;11.08;51.63;101282.25;5054784;28;20465;-61
2021/09/28 11:31:05;;;;;;;9.27;5.35;;;;;;;11.11;51.69;101274.91;5053941;28;20532;-62
2021/09/28 11:33:42;;;;;;;13.07;5.30;;;;;;;11.16;51.69;101283.53;5054640;28;20052;-62